sensor_id;sensor_type;location;lat;lon;timestamp;temperature;humidity
46730;DHT22;32476;50.002;11.854;2023-07-30T00:01:42;13.50;99.90
46730;DHT22;32476;50.002;11.854;2023-07-30T00:04:08;13.40;99.90
46730;DHT22;32476;50.002;11.854;2023-07-30T00:06:34;13.40;99.90
46730;DHT22;32476;50.002;11.854;2023-07-30T00:09:01;13.40;99.90
46730;DHT22;32476;50.002;11.854;2023-07-30T00:11:27;13.40;99.90
46730;DHT22;32476;50.002;11.854;2023-07-30T00:13:53;13.40;99.90
46730;DHT22;32476;50.002;11.854;2023-07-30T00:16:21;13.40;99.90
46730;DHT22;32476;50.002;11.854;2023-07-30T00:18:47;13.40;99.90
46730;DHT22;32476;50.002;11.854;2023-07-30T00:21:13;13.30;99.90
46730;DHT22;32476;50.002;11.854;2023-07-30T00:23:40;13.30;99.90
46730;DHT22;32476;50.002;11.854;2023-07-30T00:26:06;13.30;99.90
46730;DHT22;32476;50.002;11.854;2023-07-30T00:28:32;13.30;99.90
46730;DHT22;32476;50.002;11.854;2023-07-30T00:30:59;13.40;99.90
46730;DHT22;32476;50.002;11.854;2023-07-30T00:33:25;13.40;99.90
46730;DHT22;32476;50.002;11.854;2023-07-30T00:35:51;13.40;99.90
46730;DHT22;32476;50.002;11.854;2023-07-30T00:38:20;13.30;99.90
46730;DHT22;32476;50.002;11.854;2023-07-30T00:40:46;13.40;99.90
46730;DHT22;32476;50.002;11.854;2023-07-30T00:43:12;13.50;99.90
46730;DHT22;32476;50.002;11.854;2023-07-30T00:45:42;13.50;99.90
46730;DHT22;32476;50.002;11.854;2023-07-30T00:48:13;13.60;99.90
46730;DHT22;32476;50.002;11.854;2023-07-30T00:50:41;13.90;99.90
46730;DHT22;32476;50.002;11.854;2023-07-30T00:53:09;14.10;99.90
46730;DHT22;32476;50.002;11.854;2023-07-30T00:55:36;14.20;99.90
46730;DHT22;32476;50.002;11.854;2023-07-30T00:58:03;14.20;99.90
46730;DHT22;32476;50.002;11.854;2023-07-30T01:00:30;14.30;99.90
46730;DHT22;32476;50.002;11.854;2023-07-30T01:02:57;14.30;99.90
46730;DHT22;32476;50.002;11.854;2023-07-30T01:05:25;14.20;99.90
46730;DHT22;32476;50.002;11.854;2023-07-30T01:07:51;14.20;99.90
46730;DHT22;32476;50.002;11.854;2023-07-30T01:10:17;14.30;99.90
46730;DHT22;32476;50.002;11.854;2023-07-30T01:12:45;14.50;99.90
46730;DHT22;32476;50.002;11.854;2023-07-30T01:15:12;14.50;99.90
46730;DHT22;32476;50.002;11.854;2023-07-30T01:17:39;14.40;99.90
46730;DHT22;32476;50.002;11.854;2023-07-30T01:20:07;14.40;99.90
46730;DHT22;32476;50.002;11.854;2023-07-30T01:22:33;14.60;99.90
46730;DHT22;32476;50.002;11.854;2023-07-30T01:24:59;14.60;99.90
46730;DHT22;32476;50.002;11.854;2023-07-30T01:27:29;14.40;99.90
46730;DHT22;32476;50.002;11.854;2023-07-30T01:30:03;14.30;99.90
46730;DHT22;32476;50.002;11.854;2023-07-30T01:32:36;14.40;99.90
46730;DHT22;32476;50.002;11.854;2023-07-30T01:35:03;14.50;99.90
46730;DHT22;32476;50.002;11.854;2023-07-30T01:37:30;14.50;99.90
46730;DHT22;32476;50.002;11.854;2023-07-30T01:43:14;14.60;99.90
46730;DHT22;32476;50.002;11.854;2023-07-30T01:45:41;14.80;99.90
46730;DHT22;32476;50.002;11.854;2023-07-30T01:48:07;14.70;99.90
46730;DHT22;32476;50.002;11.854;2023-07-30T01:50:33;14.60;99.90
46730;DHT22;32476;50.002;11.854;2023-07-30T01:53:00;14.60;99.90
46730;DHT22;32476;50.002;11.854;2023-07-30T01:55:27;14.70;99.90
46730;DHT22;32476;50.002;11.854;2023-07-30T01:57:53;14.80;99.90
46730;DHT22;32476;50.002;11.854;2023-07-30T02:00:20;14.80;99.90
46730;DHT22;32476;50.002;11.854;2023-07-30T02:02:47;14.80;99.90
46730;DHT22;32476;50.002;11.854;2023-07-30T02:05:12;14.80;99.90
46730;DHT22;32476;50.002;11.854;2023-07-30T02:07:40;14.80;99.90
46730;DHT22;32476;50.002;11.854;2023-07-30T02:10:06;14.80;99.90
46730;DHT22;32476;50.002;11.854;2023-07-30T02:12:32;14.80;99.90
46730;DHT22;32476;50.002;11.854;2023-07-30T02:14:59;14.80;99.90
46730;DHT22;32476;50.002;11.854;2023-07-30T02:17:25;14.80;99.90
46730;DHT22;32476;50.002;11.854;2023-07-30T02:19:51;14.90;99.90
46730;DHT22;32476;50.002;11.854;2023-07-30T02:22:19;14.90;99.90
46730;DHT22;32476;50.002;11.854;2023-07-30T02:24:45;14.90;99.90
46730;DHT22;32476;50.002;11.854;2023-07-30T02:27:10;14.90;99.90
46730;DHT22;32476;50.002;11.854;2023-07-30T02:29:38;14.90;99.90
46730;DHT22;32476;50.002;11.854;2023-07-30T02:32:05;14.90;99.90
46730;DHT22;32476;50.002;11.854;2023-07-30T02:34:31;15.00;99.90
46730;DHT22;32476;50.002;11.854;2023-07-30T02:36:58;15.00;99.90
46730;DHT22;32476;50.002;11.854;2023-07-30T02:39:24;15.00;99.90
46730;DHT22;32476;50.002;11.854;2023-07-30T02:41:50;15.00;99.90
46730;DHT22;32476;50.002;11.854;2023-07-30T02:44:18;15.00;99.90
46730;DHT22;32476;50.002;11.854;2023-07-30T02:46:44;15.00;99.90
46730;DHT22;32476;50.002;11.854;2023-07-30T02:49:09;15.00;99.90
46730;DHT22;32476;50.002;11.854;2023-07-30T02:51:37;15.00;99.90
46730;DHT22;32476;50.002;11.854;2023-07-30T02:54:07;15.00;99.90
46730;DHT22;32476;50.002;11.854;2023-07-30T02:56:33;14.90;99.90
46730;DHT22;32476;50.002;11.854;2023-07-30T02:59:01;14.90;99.90
46730;DHT22;32476;50.002;11.854;2023-07-30T03:01:27;14.90;99.90
46730;DHT22;32476;50.002;11.854;2023-07-30T03:03:53;14.90;99.90
46730;DHT22;32476;50.002;11.854;2023-07-30T03:06:20;15.00;99.90
46730;DHT22;32476;50.002;11.854;2023-07-30T03:08:46;15.00;99.90
46730;DHT22;32476;50.002;11.854;2023-07-30T03:11:12;15.00;99.90
46730;DHT22;32476;50.002;11.854;2023-07-30T03:13:40;15.00;99.90
46730;DHT22;32476;50.002;11.854;2023-07-30T03:16:06;15.10;99.90
46730;DHT22;32476;50.002;11.854;2023-07-30T03:18:32;15.10;99.90
46730;DHT22;32476;50.002;11.854;2023-07-30T03:21:00;15.10;99.90
46730;DHT22;32476;50.002;11.854;2023-07-30T03:23:27;15.20;99.90
46730;DHT22;32476;50.002;11.854;2023-07-30T03:25:53;15.20;99.90
46730;DHT22;32476;50.002;11.854;2023-07-30T03:28:20;15.20;99.90
46730;DHT22;32476;50.002;11.854;2023-07-30T03:30:46;15.20;99.90
46730;DHT22;32476;50.002;11.854;2023-07-30T03:33:12;15.20;99.90
46730;DHT22;32476;50.002;11.854;2023-07-30T03:35:40;15.20;99.90
46730;DHT22;32476;50.002;11.854;2023-07-30T03:38:05;15.20;99.90
46730;DHT22;32476;50.002;11.854;2023-07-30T03:40:32;15.30;99.90
46730;DHT22;32476;50.002;11.854;2023-07-30T03:42:59;15.30;99.90
46730;DHT22;32476;50.002;11.854;2023-07-30T03:45:25;15.30;99.90
46730;DHT22;32476;50.002;11.854;2023-07-30T03:47:51;15.30;99.90
46730;DHT22;32476;50.002;11.854;2023-07-30T03:50:18;15.40;99.90
46730;DHT22;32476;50.002;11.854;2023-07-30T03:52:44;15.40;99.90
46730;DHT22;32476;50.002;11.854;2023-07-30T03:55:10;15.40;99.90
46730;DHT22;32476;50.002;11.854;2023-07-30T03:57:37;15.40;99.90
46730;DHT22;32476;50.002;11.854;2023-07-30T04:00:04;15.40;99.90
46730;DHT22;32476;50.002;11.854;2023-07-30T04:02:37;15.40;99.90
46730;DHT22;32476;50.002;11.854;2023-07-30T04:05:03;15.40;99.90
46730;DHT22;32476;50.002;11.854;2023-07-30T04:07:29;15.50;99.90
46730;DHT22;32476;50.002;11.854;2023-07-30T04:09:56;15.50;99.90
46730;DHT22;32476;50.002;11.854;2023-07-30T04:12:22;15.50;99.90
46730;DHT22;32476;50.002;11.854;2023-07-30T04:14:48;15.50;99.90
46730;DHT22;32476;50.002;11.854;2023-07-30T04:17:16;15.50;99.90
46730;DHT22;32476;50.002;11.854;2023-07-30T04:19:42;15.50;99.90
46730;DHT22;32476;50.002;11.854;2023-07-30T04:22:08;15.50;99.90
46730;DHT22;32476;50.002;11.854;2023-07-30T04:24:35;15.50;99.90
46730;DHT22;32476;50.002;11.854;2023-07-30T04:27:01;15.40;99.90
46730;DHT22;32476;50.002;11.854;2023-07-30T04:29:27;15.40;99.90
46730;DHT22;32476;50.002;11.854;2023-07-30T04:31:54;15.40;99.90
46730;DHT22;32476;50.002;11.854;2023-07-30T04:34:20;15.40;99.90
46730;DHT22;32476;50.002;11.854;2023-07-30T04:36:46;15.40;99.90
46730;DHT22;32476;50.002;11.854;2023-07-30T04:39:13;15.40;99.90
46730;DHT22;32476;50.002;11.854;2023-07-30T04:41:40;15.40;99.90
46730;DHT22;32476;50.002;11.854;2023-07-30T04:44:05;15.40;99.90
46730;DHT22;32476;50.002;11.854;2023-07-30T04:46:33;15.40;99.90
46730;DHT22;32476;50.002;11.854;2023-07-30T04:49:02;15.30;99.90
46730;DHT22;32476;50.002;11.854;2023-07-30T04:51:29;15.30;99.90
46730;DHT22;32476;50.002;11.854;2023-07-30T04:53:57;15.30;99.90
46730;DHT22;32476;50.002;11.854;2023-07-30T04:56:23;15.30;99.90
46730;DHT22;32476;50.002;11.854;2023-07-30T04:58:52;15.40;99.90
46730;DHT22;32476;50.002;11.854;2023-07-30T05:01:20;15.30;99.90
46730;DHT22;32476;50.002;11.854;2023-07-30T05:03:47;15.30;99.90
46730;DHT22;32476;50.002;11.854;2023-07-30T05:06:12;15.40;99.90
46730;DHT22;32476;50.002;11.854;2023-07-30T05:08:40;15.40;99.90
46730;DHT22;32476;50.002;11.854;2023-07-30T05:11:06;15.40;99.90
46730;DHT22;32476;50.002;11.854;2023-07-30T05:13:32;15.40;99.90
46730;DHT22;32476;50.002;11.854;2023-07-30T05:16:00;15.40;99.90
46730;DHT22;32476;50.002;11.854;2023-07-30T05:18:26;15.40;99.90
46730;DHT22;32476;50.002;11.854;2023-07-30T05:20:52;15.40;99.90
46730;DHT22;32476;50.002;11.854;2023-07-30T05:23:19;15.40;99.90
46730;DHT22;32476;50.002;11.854;2023-07-30T05:25:46;15.40;99.90
46730;DHT22;32476;50.002;11.854;2023-07-30T05:28:12;15.40;99.90
46730;DHT22;32476;50.002;11.854;2023-07-30T05:30:40;15.50;99.90
46730;DHT22;32476;50.002;11.854;2023-07-30T05:33:06;15.40;99.90
46730;DHT22;32476;50.002;11.854;2023-07-30T05:35:31;15.40;99.90
46730;DHT22;32476;50.002;11.854;2023-07-30T05:37:59;15.40;99.90
46730;DHT22;32476;50.002;11.854;2023-07-30T05:40:25;15.40;99.90
46730;DHT22;32476;50.002;11.854;2023-07-30T05:42:51;15.50;99.90
46730;DHT22;32476;50.002;11.854;2023-07-30T05:45:19;15.50;99.90
46730;DHT22;32476;50.002;11.854;2023-07-30T05:47:44;15.50;99.90
46730;DHT22;32476;50.002;11.854;2023-07-30T05:50:10;15.50;99.90
46730;DHT22;32476;50.002;11.854;2023-07-30T05:52:38;15.50;99.90
46730;DHT22;32476;50.002;11.854;2023-07-30T05:55:04;15.60;99.90
46730;DHT22;32476;50.002;11.854;2023-07-30T05:57:30;15.60;99.90
46730;DHT22;32476;50.002;11.854;2023-07-30T05:59:58;15.60;99.90
46730;DHT22;32476;50.002;11.854;2023-07-30T06:02:23;15.70;99.90
46730;DHT22;32476;50.002;11.854;2023-07-30T06:04:49;15.70;99.90
46730;DHT22;32476;50.002;11.854;2023-07-30T06:07:17;15.80;99.90
46730;DHT22;32476;50.002;11.854;2023-07-30T06:09:43;15.80;99.90
46730;DHT22;32476;50.002;11.854;2023-07-30T06:12:10;15.80;99.90
46730;DHT22;32476;50.002;11.854;2023-07-30T06:14:38;15.80;99.90
46730;DHT22;32476;50.002;11.854;2023-07-30T06:17:04;15.90;99.90
46730;DHT22;32476;50.002;11.854;2023-07-30T06:19:30;15.90;99.90
46730;DHT22;32476;50.002;11.854;2023-07-30T06:21:57;16.00;99.90
46730;DHT22;32476;50.002;11.854;2023-07-30T06:24:23;16.10;99.90
46730;DHT22;32476;50.002;11.854;2023-07-30T06:26:49;16.20;99.90
46730;DHT22;32476;50.002;11.854;2023-07-30T06:29:16;16.10;99.90
46730;DHT22;32476;50.002;11.854;2023-07-30T06:31:42;16.10;99.90
46730;DHT22;32476;50.002;11.854;2023-07-30T06:34:08;16.00;99.90
46730;DHT22;32476;50.002;11.854;2023-07-30T06:36:36;16.00;99.90
46730;DHT22;32476;50.002;11.854;2023-07-30T06:39:01;16.00;99.90
46730;DHT22;32476;50.002;11.854;2023-07-30T06:41:27;15.90;99.90
46730;DHT22;32476;50.002;11.854;2023-07-30T06:43:55;16.00;99.90
46730;DHT22;32476;50.002;11.854;2023-07-30T06:46:21;16.00;99.90
46730;DHT22;32476;50.002;11.854;2023-07-30T06:48:47;16.10;99.90
46730;DHT22;32476;50.002;11.854;2023-07-30T06:51:14;16.10;99.90
46730;DHT22;32476;50.002;11.854;2023-07-30T06:53:40;16.10;99.90
46730;DHT22;32476;50.002;11.854;2023-07-30T06:56:06;16.10;99.90
46730;DHT22;32476;50.002;11.854;2023-07-30T06:58:33;16.10;99.90
46730;DHT22;32476;50.002;11.854;2023-07-30T07:00:59;16.20;99.90
46730;DHT22;32476;50.002;11.854;2023-07-30T07:03:25;16.30;99.90
46730;DHT22;32476;50.002;11.854;2023-07-30T07:05:56;16.40;99.90
46730;DHT22;32476;50.002;11.854;2023-07-30T07:08:22;16.60;99.90
46730;DHT22;32476;50.002;11.854;2023-07-30T07:10:49;16.50;99.90
46730;DHT22;32476;50.002;11.854;2023-07-30T07:13:16;16.60;99.90
46730;DHT22;32476;50.002;11.854;2023-07-30T07:15:43;16.70;99.90
46730;DHT22;32476;50.002;11.854;2023-07-30T07:18:10;16.70;99.90
46730;DHT22;32476;50.002;11.854;2023-07-30T07:20:37;16.60;99.90
46730;DHT22;32476;50.002;11.854;2023-07-30T07:23:04;16.70;99.90
46730;DHT22;32476;50.002;11.854;2023-07-30T07:25:30;16.70;99.90
46730;DHT22;32476;50.002;11.854;2023-07-30T07:27:57;16.60;99.90
46730;DHT22;32476;50.002;11.854;2023-07-30T07:30:23;16.60;99.90
46730;DHT22;32476;50.002;11.854;2023-07-30T07:32:49;16.70;99.90
46730;DHT22;32476;50.002;11.854;2023-07-30T07:35:19;17.00;99.90
46730;DHT22;32476;50.002;11.854;2023-07-30T07:37:48;17.20;99.90
46730;DHT22;32476;50.002;11.854;2023-07-30T07:40:14;17.20;99.90
46730;DHT22;32476;50.002;11.854;2023-07-30T07:42:42;17.10;99.90
46730;DHT22;32476;50.002;11.854;2023-07-30T07:45:08;17.00;99.90
46730;DHT22;32476;50.002;11.854;2023-07-30T07:47:34;17.10;99.90
46730;DHT22;32476;50.002;11.854;2023-07-30T07:50:01;17.20;99.90
46730;DHT22;32476;50.002;11.854;2023-07-30T07:52:27;17.30;99.90
46730;DHT22;32476;50.002;11.854;2023-07-30T07:54:53;17.10;99.90
46730;DHT22;32476;50.002;11.854;2023-07-30T07:57:21;17.30;99.90
46730;DHT22;32476;50.002;11.854;2023-07-30T07:59:47;17.30;99.90
46730;DHT22;32476;50.002;11.854;2023-07-30T08:02:13;17.50;99.90
46730;DHT22;32476;50.002;11.854;2023-07-30T08:04:40;17.60;99.90
46730;DHT22;32476;50.002;11.854;2023-07-30T08:07:06;17.40;99.90
46730;DHT22;32476;50.002;11.854;2023-07-30T08:09:33;17.70;99.90
46730;DHT22;32476;50.002;11.854;2023-07-30T08:12:00;17.60;99.90
46730;DHT22;32476;50.002;11.854;2023-07-30T08:14:26;17.80;99.90
46730;DHT22;32476;50.002;11.854;2023-07-30T08:16:52;17.60;99.90
46730;DHT22;32476;50.002;11.854;2023-07-30T08:19:19;17.40;99.90
46730;DHT22;32476;50.002;11.854;2023-07-30T08:21:45;17.60;99.90
46730;DHT22;32476;50.002;11.854;2023-07-30T08:24:11;17.60;99.90
46730;DHT22;32476;50.002;11.854;2023-07-30T08:26:39;17.70;99.90
46730;DHT22;32476;50.002;11.854;2023-07-30T08:29:05;18.00;99.90
46730;DHT22;32476;50.002;11.854;2023-07-30T08:31:31;18.50;99.90
46730;DHT22;32476;50.002;11.854;2023-07-30T08:33:59;18.80;99.90
46730;DHT22;32476;50.002;11.854;2023-07-30T08:36:25;18.60;99.90
46730;DHT22;32476;50.002;11.854;2023-07-30T08:38:51;18.40;99.90
46730;DHT22;32476;50.002;11.854;2023-07-30T08:41:18;18.20;99.90
46730;DHT22;32476;50.002;11.854;2023-07-30T08:43:44;18.10;99.90
46730;DHT22;32476;50.002;11.854;2023-07-30T08:46:15;17.90;99.90
46730;DHT22;32476;50.002;11.854;2023-07-30T08:48:43;17.80;99.90
46730;DHT22;32476;50.002;11.854;2023-07-30T08:51:11;18.20;99.90
46730;DHT22;32476;50.002;11.854;2023-07-30T08:53:37;18.40;99.90
46730;DHT22;32476;50.002;11.854;2023-07-30T08:56:05;18.90;99.90
46730;DHT22;32476;50.002;11.854;2023-07-30T08:58:33;19.10;99.90
46730;DHT22;32476;50.002;11.854;2023-07-30T09:01:01;18.90;99.90
46730;DHT22;32476;50.002;11.854;2023-07-30T09:03:34;19.10;99.90
46730;DHT22;32476;50.002;11.854;2023-07-30T09:06:03;18.80;99.90
46730;DHT22;32476;50.002;11.854;2023-07-30T09:08:29;18.60;99.90
46730;DHT22;32476;50.002;11.854;2023-07-30T09:11:08;18.80;99.90
46730;DHT22;32476;50.002;11.854;2023-07-30T09:13:39;18.90;99.90
46730;DHT22;32476;50.002;11.854;2023-07-30T09:16:11;18.90;99.90
46730;DHT22;32476;50.002;11.854;2023-07-30T09:18:45;18.80;99.90
46730;DHT22;32476;50.002;11.854;2023-07-30T09:21:13;18.60;99.90
46730;DHT22;32476;50.002;11.854;2023-07-30T09:23:44;18.80;99.90
46730;DHT22;32476;50.002;11.854;2023-07-30T09:26:14;19.00;99.90
46730;DHT22;32476;50.002;11.854;2023-07-30T09:28:40;19.30;99.90
46730;DHT22;32476;50.002;11.854;2023-07-30T09:31:07;19.70;99.90
46730;DHT22;32476;50.002;11.854;2023-07-30T09:33:40;19.60;99.90
46730;DHT22;32476;50.002;11.854;2023-07-30T09:36:08;19.30;99.90
46730;DHT22;32476;50.002;11.854;2023-07-30T09:38:40;19.40;99.90
46730;DHT22;32476;50.002;11.854;2023-07-30T09:41:07;19.60;99.90
46730;DHT22;32476;50.002;11.854;2023-07-30T09:43:33;19.50;99.90
46730;DHT22;32476;50.002;11.854;2023-07-30T09:46:03;19.30;99.90
46730;DHT22;32476;50.002;11.854;2023-07-30T09:48:34;19.50;99.90
46730;DHT22;32476;50.002;11.854;2023-07-30T09:51:03;19.40;99.90
46730;DHT22;32476;50.002;11.854;2023-07-30T09:53:30;19.30;99.90
46730;DHT22;32476;50.002;11.854;2023-07-30T09:56:01;19.50;99.90
46730;DHT22;32476;50.002;11.854;2023-07-30T09:58:30;19.40;99.90
46730;DHT22;32476;50.002;11.854;2023-07-30T10:01:00;19.30;99.90
46730;DHT22;32476;50.002;11.854;2023-07-30T10:03:27;19.40;99.90
46730;DHT22;32476;50.002;11.854;2023-07-30T10:06:01;19.60;99.90
46730;DHT22;32476;50.002;11.854;2023-07-30T10:08:30;19.60;99.90
46730;DHT22;32476;50.002;11.854;2023-07-30T10:11:00;19.30;99.90
46730;DHT22;32476;50.002;11.854;2023-07-30T10:13:30;19.40;99.90
46730;DHT22;32476;50.002;11.854;2023-07-30T10:15:56;19.80;99.90
46730;DHT22;32476;50.002;11.854;2023-07-30T10:18:42;20.20;99.90
46730;DHT22;32476;50.002;11.854;2023-07-30T10:21:10;20.20;99.90
46730;DHT22;32476;50.002;11.854;2023-07-30T10:23:58;20.10;99.90
46730;DHT22;32476;50.002;11.854;2023-07-30T10:26:32;19.70;99.90
46730;DHT22;32476;50.002;11.854;2023-07-30T10:29:10;19.90;99.90
46730;DHT22;32476;50.002;11.854;2023-07-30T10:31:57;19.80;99.90
46730;DHT22;32476;50.002;11.854;2023-07-30T10:34:44;19.80;99.90
46730;DHT22;32476;50.002;11.854;2023-07-30T10:37:18;19.70;99.90
46730;DHT22;32476;50.002;11.854;2023-07-30T10:39:49;20.20;99.90
46730;DHT22;32476;50.002;11.854;2023-07-30T10:42:15;20.60;99.90
46730;DHT22;32476;50.002;11.854;2023-07-30T10:44:44;20.60;99.90
46730;DHT22;32476;50.002;11.854;2023-07-30T10:47:12;19.90;99.90
46730;DHT22;32476;50.002;11.854;2023-07-30T10:49:39;19.90;99.90
46730;DHT22;32476;50.002;11.854;2023-07-30T10:52:06;20.20;99.90
46730;DHT22;32476;50.002;11.854;2023-07-30T10:54:34;20.30;99.90
46730;DHT22;32476;50.002;11.854;2023-07-30T10:57:01;20.00;99.90
46730;DHT22;32476;50.002;11.854;2023-07-30T10:59:36;19.80;99.90
46730;DHT22;32476;50.002;11.854;2023-07-30T11:02:04;19.80;99.90
46730;DHT22;32476;50.002;11.854;2023-07-30T11:04:34;19.70;99.90
46730;DHT22;32476;50.002;11.854;2023-07-30T11:07:00;19.30;99.90
46730;DHT22;32476;50.002;11.854;2023-07-30T11:09:28;19.20;99.90
46730;DHT22;32476;50.002;11.854;2023-07-30T11:11:55;19.30;99.90
46730;DHT22;32476;50.002;11.854;2023-07-30T11:14:24;19.80;99.90
46730;DHT22;32476;50.002;11.854;2023-07-30T11:16:57;20.20;99.90
46730;DHT22;32476;50.002;11.854;2023-07-30T11:19:25;20.50;99.90
46730;DHT22;32476;50.002;11.854;2023-07-30T11:21:53;20.50;99.90
46730;DHT22;32476;50.002;11.854;2023-07-30T11:24:22;20.50;99.90
46730;DHT22;32476;50.002;11.854;2023-07-30T11:27:00;20.50;99.90
46730;DHT22;32476;50.002;11.854;2023-07-30T11:29:28;20.20;99.90
46730;DHT22;32476;50.002;11.854;2023-07-30T11:31:58;19.90;99.90
46730;DHT22;32476;50.002;11.854;2023-07-30T11:34:26;19.70;99.90
46730;DHT22;32476;50.002;11.854;2023-07-30T11:36:55;19.50;99.90
46730;DHT22;32476;50.002;11.854;2023-07-30T11:39:23;19.40;99.90
46730;DHT22;32476;50.002;11.854;2023-07-30T11:41:50;19.50;99.90
46730;DHT22;32476;50.002;11.854;2023-07-30T11:44:35;19.70;99.90
46730;DHT22;32476;50.002;11.854;2023-07-30T11:47:04;20.10;99.90
46730;DHT22;32476;50.002;11.854;2023-07-30T11:49:32;20.20;99.90
46730;DHT22;32476;50.002;11.854;2023-07-30T11:52:10;20.40;99.90
46730;DHT22;32476;50.002;11.854;2023-07-30T11:54:38;20.50;99.90
46730;DHT22;32476;50.002;11.854;2023-07-30T11:57:04;20.40;99.90
46730;DHT22;32476;50.002;11.854;2023-07-30T11:59:33;20.40;99.90
46730;DHT22;32476;50.002;11.854;2023-07-30T12:02:01;20.10;99.90
46730;DHT22;32476;50.002;11.854;2023-07-30T12:04:31;19.90;99.90
46730;DHT22;32476;50.002;11.854;2023-07-30T12:07:09;19.50;99.90
46730;DHT22;32476;50.002;11.854;2023-07-30T12:09:36;19.50;99.90
46730;DHT22;32476;50.002;11.854;2023-07-30T12:12:04;19.20;99.90
46730;DHT22;32476;50.002;11.854;2023-07-30T12:14:53;19.20;99.90
46730;DHT22;32476;50.002;11.854;2023-07-30T12:17:20;18.90;99.90
46730;DHT22;32476;50.002;11.854;2023-07-30T12:19:47;18.40;99.90
46730;DHT22;32476;50.002;11.854;2023-07-30T12:22:13;17.60;99.90
46730;DHT22;32476;50.002;11.854;2023-07-30T12:24:40;16.90;99.90
46730;DHT22;32476;50.002;11.854;2023-07-30T12:27:08;16.50;99.90
46730;DHT22;32476;50.002;11.854;2023-07-30T12:29:34;16.50;99.90
46730;DHT22;32476;50.002;11.854;2023-07-30T12:31:59;16.40;99.90
46730;DHT22;32476;50.002;11.854;2023-07-30T12:34:27;16.40;99.90
46730;DHT22;32476;50.002;11.854;2023-07-30T12:36:53;16.30;99.90
46730;DHT22;32476;50.002;11.854;2023-07-30T12:39:19;16.40;99.90
46730;DHT22;32476;50.002;11.854;2023-07-30T12:41:47;16.40;99.90
46730;DHT22;32476;50.002;11.854;2023-07-30T12:44:12;16.50;99.90
46730;DHT22;32476;50.002;11.854;2023-07-30T12:46:38;16.30;99.90
46730;DHT22;32476;50.002;11.854;2023-07-30T12:49:06;16.40;99.90
46730;DHT22;32476;50.002;11.854;2023-07-30T12:51:33;16.50;99.90
46730;DHT22;32476;50.002;11.854;2023-07-30T12:53:59;16.80;99.90
46730;DHT22;32476;50.002;11.854;2023-07-30T12:56:27;17.10;99.90
46730;DHT22;32476;50.002;11.854;2023-07-30T12:58:53;17.00;99.90
46730;DHT22;32476;50.002;11.854;2023-07-30T13:01:19;17.30;99.90
46730;DHT22;32476;50.002;11.854;2023-07-30T13:03:47;17.40;99.90
46730;DHT22;32476;50.002;11.854;2023-07-30T13:06:14;17.40;99.90
46730;DHT22;32476;50.002;11.854;2023-07-30T13:08:40;17.60;99.90
46730;DHT22;32476;50.002;11.854;2023-07-30T13:11:07;17.80;99.90
46730;DHT22;32476;50.002;11.854;2023-07-30T13:13:33;18.10;99.90
46730;DHT22;32476;50.002;11.854;2023-07-30T13:15:59;18.00;99.90
46730;DHT22;32476;50.002;11.854;2023-07-30T13:18:29;18.60;99.90
46730;DHT22;32476;50.002;11.854;2023-07-30T13:20:55;18.80;99.90
46730;DHT22;32476;50.002;11.854;2023-07-30T13:23:21;18.90;99.90
46730;DHT22;32476;50.002;11.854;2023-07-30T13:25:48;19.30;99.90
46730;DHT22;32476;50.002;11.854;2023-07-30T13:28:14;19.80;99.90
46730;DHT22;32476;50.002;11.854;2023-07-30T13:30:40;19.90;99.90
46730;DHT22;32476;50.002;11.854;2023-07-30T13:33:07;19.70;99.90
46730;DHT22;32476;50.002;11.854;2023-07-30T13:35:33;20.00;99.90
46730;DHT22;32476;50.002;11.854;2023-07-30T13:37:59;19.80;99.90
46730;DHT22;32476;50.002;11.854;2023-07-30T13:40:27;19.60;99.90
46730;DHT22;32476;50.002;11.854;2023-07-30T13:42:53;19.60;99.90
46730;DHT22;32476;50.002;11.854;2023-07-30T13:45:19;19.60;99.90
46730;DHT22;32476;50.002;11.854;2023-07-30T13:47:46;19.80;99.90
46730;DHT22;32476;50.002;11.854;2023-07-30T13:50:12;19.50;99.90
46730;DHT22;32476;50.002;11.854;2023-07-30T13:52:38;19.50;99.90
46730;DHT22;32476;50.002;11.854;2023-07-30T13:55:06;19.60;99.90
46730;DHT22;32476;50.002;11.854;2023-07-30T13:57:32;19.60;99.90
46730;DHT22;32476;50.002;11.854;2023-07-30T13:59:58;19.50;99.90
46730;DHT22;32476;50.002;11.854;2023-07-30T14:02:25;19.00;99.90
46730;DHT22;32476;50.002;11.854;2023-07-30T14:04:51;19.00;99.90
46730;DHT22;32476;50.002;11.854;2023-07-30T14:07:17;18.60;99.90
46730;DHT22;32476;50.002;11.854;2023-07-30T14:09:44;18.40;99.90
46730;DHT22;32476;50.002;11.854;2023-07-30T14:12:10;17.80;99.90
46730;DHT22;32476;50.002;11.854;2023-07-30T14:14:37;16.40;99.90
46730;DHT22;32476;50.002;11.854;2023-07-30T14:17:04;15.40;99.90
46730;DHT22;32476;50.002;11.854;2023-07-30T14:19:32;14.90;99.90
46730;DHT22;32476;50.002;11.854;2023-07-30T14:22:00;15.00;99.90
46730;DHT22;32476;50.002;11.854;2023-07-30T14:24:28;14.80;99.90
46730;DHT22;32476;50.002;11.854;2023-07-30T14:26:54;14.80;99.90
46730;DHT22;32476;50.002;11.854;2023-07-30T14:29:21;14.60;99.90
46730;DHT22;32476;50.002;11.854;2023-07-30T14:31:48;14.60;99.90
46730;DHT22;32476;50.002;11.854;2023-07-30T14:34:14;14.60;99.90
46730;DHT22;32476;50.002;11.854;2023-07-30T14:36:40;14.70;99.90
46730;DHT22;32476;50.002;11.854;2023-07-30T14:39:07;14.60;99.90
46730;DHT22;32476;50.002;11.854;2023-07-30T14:41:33;14.70;99.90
46730;DHT22;32476;50.002;11.854;2023-07-30T14:43:59;14.70;99.90
46730;DHT22;32476;50.002;11.854;2023-07-30T14:46:27;14.80;99.90
46730;DHT22;32476;50.002;11.854;2023-07-30T14:48:54;15.40;99.90
46730;DHT22;32476;50.002;11.854;2023-07-30T14:51:20;15.70;99.90
46730;DHT22;32476;50.002;11.854;2023-07-30T14:53:47;15.90;99.90
46730;DHT22;32476;50.002;11.854;2023-07-30T14:56:13;16.50;99.90
46730;DHT22;32476;50.002;11.854;2023-07-30T14:58:39;16.70;99.90
46730;DHT22;32476;50.002;11.854;2023-07-30T15:01:06;16.50;99.90
46730;DHT22;32476;50.002;11.854;2023-07-30T15:03:32;16.30;99.90
46730;DHT22;32476;50.002;11.854;2023-07-30T15:05:58;16.50;99.90
46730;DHT22;32476;50.002;11.854;2023-07-30T15:08:26;16.00;99.90
46730;DHT22;32476;50.002;11.854;2023-07-30T15:10:53;16.10;99.90
46730;DHT22;32476;50.002;11.854;2023-07-30T15:13:19;15.90;99.90
46730;DHT22;32476;50.002;11.854;2023-07-30T15:15:47;15.90;99.90
46730;DHT22;32476;50.002;11.854;2023-07-30T15:18:13;16.00;99.90
46730;DHT22;32476;50.002;11.854;2023-07-30T15:20:39;16.00;99.90